createdAt,value
2018-07-04T00:00:13.049Z,12
2018-07-04T00:06:08.115Z,12.37
2018-07-04T00:12:03.138Z,12.28
2018-07-04T00:17:58.097Z,12.03
2018-07-04T00:23:53.083Z,12.96
2018-07-04T00:29:48.168Z,12.66
2018-07-04T00:35:43.123Z,12.75
2018-07-04T00:41:38.120Z,12.32
2018-07-04T00:47:33.129Z,12.84
2018-07-04T00:53:28.126Z,13.27
2018-07-04T00:59:23.136Z,13.44
2018-07-04T01:05:18.126Z,12.88
2018-07-04T01:11:13.173Z,12.63
2018-07-04T01:17:08.190Z,13.74
2018-07-04T01:23:03.188Z,13.01
2018-07-04T01:28:58.166Z,13.36
2018-07-04T01:34:53.170Z,13.26
2018-07-04T01:40:48.175Z,14.06
2018-07-04T01:46:43.190Z,13.5
2018-07-04T01:52:38.275Z,14.5
2018-07-04T01:58:33.189Z,14.53
2018-07-04T02:04:28.184Z,14.54
2018-07-04T02:10:23.194Z,14.49
2018-07-04T02:16:18.233Z,14.51
2018-07-04T02:22:13.231Z,14.36
2018-07-04T02:28:08.225Z,14.88
2018-07-04T02:34:03.169Z,13.9
2018-07-04T02:39:58.231Z,14.65
2018-07-04T02:45:53.226Z,13.56
2018-07-04T02:51:48.212Z,14.64
2018-07-04T02:57:43.262Z,14.34
2018-07-04T03:03:38.243Z,15.19
2018-07-04T03:09:33.195Z,14.09
2018-07-04T03:15:28.209Z,13.44
2018-07-04T03:21:23.246Z,14.7
2018-07-04T03:27:18.206Z,14.04
2018-07-04T03:33:13.215Z,15.3
2018-07-04T03:39:08.237Z,14.7
2018-07-04T03:45:03.474Z,14.12
2018-07-04T03:50:58.257Z,15.19
2018-07-04T03:56:53.280Z,14.43
2018-07-04T04:02:48.279Z,14.84
2018-07-04T04:08:43.258Z,14.93
2018-07-04T04:14:38.284Z,14.59
2018-07-04T04:20:33.299Z,21.2
2018-07-04T04:26:28.286Z,22.83
2018-07-04T04:32:23.289Z,20.82
2018-07-04T04:38:18.350Z,19.86
2018-07-04T04:44:13.346Z,17.48
2018-07-04T04:50:08.328Z,15.91
2018-07-04T04:56:03.305Z,14.57
2018-07-04T05:01:58.376Z,14.58
2018-07-04T05:07:53.345Z,15.1
2018-07-04T05:13:48.350Z,15.11
2018-07-04T05:19:43.338Z,14.33
2018-07-04T05:25:38.352Z,15.27
2018-07-04T05:31:33.361Z,13.82
2018-07-04T05:37:28.333Z,14.63
2018-07-04T05:43:23.361Z,12.98
2018-07-04T05:49:18.373Z,13.38
2018-07-04T05:55:13.418Z,13.52
2018-07-04T06:01:08.385Z,13.7
2018-07-04T06:07:03.344Z,12.63
2018-07-04T06:12:59.132Z,13.6
2018-07-04T06:18:53.408Z,15
2018-07-04T06:24:48.507Z,13.74
2018-07-04T06:30:43.363Z,14.12
2018-07-04T06:36:38.353Z,15.87
2018-07-04T06:42:33.396Z,15.78
2018-07-04T06:48:28.404Z,17.24
2018-07-04T06:54:23.528Z,16.39
2018-07-04T07:00:18.377Z,16.36
2018-07-04T07:06:13.401Z,15.07
2018-07-04T07:12:08.415Z,15.11
2018-07-04T07:18:03.399Z,16.83
2018-07-04T07:23:58.452Z,16.09
2018-07-04T07:29:53.424Z,15.28
2018-07-04T07:35:48.414Z,15.33
2018-07-04T07:41:43.470Z,17.75
2018-07-04T07:47:38.454Z,26.46
2018-07-04T07:53:33.474Z,16.56
2018-07-04T07:59:28.486Z,14.66
2018-07-04T08:05:23.485Z,33.96
2018-07-04T08:11:18.599Z,14.42
2018-07-04T08:17:13.493Z,13.93
2018-07-04T08:23:08.538Z,12.13
2018-07-04T08:29:03.541Z,11.27
2018-07-04T08:34:58.483Z,10.94
2018-07-04T08:40:53.484Z,11.01
2018-07-04T08:46:48.505Z,11.07
2018-07-04T08:52:43.518Z,10.62
2018-07-04T08:58:38.701Z,10.15
2018-07-04T09:04:33.573Z,9.47
2018-07-04T09:10:28.522Z,9.93
2018-07-04T09:16:23.524Z,9.52
2018-07-04T09:22:18.555Z,9.23
2018-07-04T09:28:13.529Z,8.26
2018-07-04T09:34:08.524Z,8.17
2018-07-04T09:40:03.562Z,7.86
2018-07-04T09:45:58.546Z,7.41
2018-07-04T09:51:53.559Z,7.19
2018-07-04T09:57:48.596Z,6.81
2018-07-04T10:03:43.663Z,6.63
2018-07-04T10:09:38.560Z,5.47
2018-07-04T10:15:33.608Z,5.48
2018-07-04T10:21:28.579Z,6.2
2018-07-04T10:27:23.595Z,6.28
2018-07-04T10:33:18.551Z,5.73
2018-07-04T10:39:13.590Z,5.22
2018-07-04T10:45:08.601Z,5.03
2018-07-04T10:51:03.734Z,4.12
2018-07-04T10:56:58.629Z,3.84
2018-07-04T11:02:53.584Z,3.41
2018-07-04T11:08:50.439Z,3.29
2018-07-04T11:14:43.644Z,3.33
2018-07-04T11:20:38.640Z,3.46
2018-07-04T11:26:33.616Z,3.13
2018-07-04T11:32:28.647Z,3.16
2018-07-04T11:38:23.630Z,3.16
2018-07-04T11:44:18.664Z,3.05
2018-07-04T11:50:13.621Z,2.63
2018-07-04T11:56:08.660Z,2.77
2018-07-04T12:02:03.634Z,2.77
2018-07-04T12:07:58.684Z,3.27
2018-07-04T12:13:53.690Z,3.06
2018-07-04T12:19:48.691Z,2.57
2018-07-04T12:25:43.683Z,2.44
2018-07-04T12:31:38.729Z,2.66
2018-07-04T12:37:33.833Z,2.57
2018-07-04T12:43:28.859Z,2.95
2018-07-04T12:49:23.727Z,2.57
2018-07-04T12:55:18.694Z,2.41
2018-07-04T13:01:13.746Z,2.6
2018-07-04T13:07:08.729Z,2.1
2018-07-04T13:13:03.824Z,2.33
2018-07-04T13:18:58.782Z,2.39
2018-07-04T13:24:53.760Z,2.49
2018-07-04T13:30:48.806Z,2.71
2018-07-04T13:36:43.822Z,3.42
2018-07-04T13:42:38.742Z,2.83
2018-07-04T13:48:33.801Z,3.4
2018-07-04T13:54:28.879Z,3.74
2018-07-04T14:00:23.822Z,3.69
2018-07-04T14:06:18.783Z,3.24
2018-07-04T14:12:13.792Z,3.81
2018-07-04T14:18:08.912Z,3.97
2018-07-04T14:24:03.763Z,3.97
2018-07-04T14:29:58.851Z,3.98
2018-07-04T14:35:53.800Z,4.18
2018-07-04T14:41:48.820Z,3.55
2018-07-04T14:47:43.814Z,3.43
2018-07-04T14:53:38.815Z,3.89
2018-07-04T14:59:33.804Z,3.88
2018-07-04T15:05:28.864Z,3.77
2018-07-04T15:11:23.810Z,4.91
2018-07-04T15:17:18.849Z,4.71
2018-07-04T15:23:13.866Z,5.36
2018-07-04T15:29:08.890Z,4.7
2018-07-04T15:35:04.196Z,4.99
2018-07-04T15:40:58.932Z,5.36
2018-07-04T15:46:57.907Z,5.47
2018-07-04T15:52:48.924Z,5.54
2018-07-04T15:58:43.869Z,5.47
2018-07-04T16:04:38.921Z,5.53
2018-07-04T16:10:33.933Z,5.7
2018-07-04T16:16:28.910Z,6.06
2018-07-04T16:22:23.915Z,6.03
2018-07-04T16:28:18.918Z,5.62
2018-07-04T16:34:13.909Z,5.83
2018-07-04T16:40:08.931Z,6.35
2018-07-04T16:46:03.945Z,5.8
2018-07-04T16:51:58.928Z,6
2018-07-04T16:57:53.907Z,6.14
2018-07-04T17:03:49.044Z,5.83
2018-07-04T17:09:43.955Z,5.76
2018-07-04T17:15:38.957Z,6.14
2018-07-04T17:21:34.017Z,6.45
2018-07-04T17:27:29.003Z,6.22
2018-07-04T17:33:24.029Z,6.43
2018-07-04T17:39:18.978Z,6.4
2018-07-04T17:45:13.949Z,6.3
2018-07-04T17:51:09.049Z,7.17
2018-07-04T17:57:03.959Z,6.31
2018-07-04T18:02:59.027Z,6.86
2018-07-04T18:08:54.010Z,6.39
2018-07-04T18:14:49.003Z,6.69
2018-07-04T18:20:44.039Z,6.76
2018-07-04T18:26:39.092Z,6.78
2018-07-04T18:32:34.024Z,6.93
2018-07-04T18:38:28.992Z,7.29
2018-07-04T18:44:24.009Z,7.52
2018-07-04T18:50:19.051Z,7.63
2018-07-04T18:56:14.086Z,7.53
2018-07-04T19:02:09.078Z,7.59
2018-07-04T19:08:04.085Z,7.82
2018-07-04T19:13:59.042Z,7.94
2018-07-04T19:19:54.243Z,8.56
2018-07-04T19:25:49.059Z,8.37
2018-07-04T19:31:44.058Z,8.58
2018-07-04T19:37:39.094Z,9.18
2018-07-04T19:43:34.083Z,8.67
2018-07-04T19:49:29.106Z,8.45
2018-07-04T19:55:24.066Z,8.38
2018-07-04T20:01:19.108Z,8.42
2018-07-04T20:07:14.098Z,8.81
2018-07-04T20:13:09.109Z,8.44
2018-07-04T20:19:04.126Z,9.06
2018-07-04T20:24:59.080Z,8.6
2018-07-04T20:30:54.153Z,9.57
2018-07-04T20:36:49.087Z,9.35
2018-07-04T20:42:44.148Z,9.32
2018-07-04T20:48:39.206Z,9.08
2018-07-04T20:54:34.267Z,9.84
2018-07-04T21:00:29.209Z,10.3
2018-07-04T21:06:24.193Z,9.67
2018-07-04T21:12:19.177Z,9.74
2018-07-04T21:18:14.175Z,9.92
2018-07-04T21:24:09.186Z,9.57
2018-07-04T21:30:04.822Z,9.64
2018-07-04T21:35:59.148Z,9.86
2018-07-04T21:41:54.252Z,10.44
2018-07-04T21:47:49.164Z,10.13
2018-07-04T21:53:44.247Z,10.2
2018-07-04T21:59:39.196Z,10.35
2018-07-04T22:05:34.192Z,10.58
2018-07-04T22:11:29.179Z,10.78
2018-07-04T22:17:24.223Z,10.64
2018-07-04T22:23:19.228Z,10.4
2018-07-04T22:29:14.219Z,9.89
2018-07-04T22:35:09.273Z,10.41
2018-07-04T22:41:04.282Z,11.54
2018-07-04T22:46:59.222Z,11.6
2018-07-04T22:52:54.240Z,10.56
2018-07-04T22:58:49.262Z,11.21
2018-07-04T23:04:44.241Z,10.94
2018-07-04T23:10:39.230Z,10.68
2018-07-04T23:16:34.267Z,11.27
2018-07-04T23:22:29.244Z,11.66
2018-07-04T23:28:24.253Z,11.57
2018-07-04T23:34:19.245Z,11.25
2018-07-04T23:40:14.352Z,11.97
2018-07-04T23:46:09.275Z,11.56
2018-07-04T23:52:04.299Z,12.51
2018-07-04T23:57:59.324Z,11.23
